Time;durP1;ratioP1;P1;durP2;ratioP2;P2;SDS_P1;SDS_P2;PMS_P1;PMS_P2;Temp;Humidity;BMP_temperature;BMP_pressure;BME280_temperature;BME280_humidity;BME280_pressure;Samples;Min_cycle;Max_cycle;Signal;HPM_P1;HPM_P2
2023/08/13 00:02:03;;;;;;;10.07;5.40;;;;;;;20.51;100.00;96934.41;5012852;28;20499;-68
2023/08/13 00:04:28;;;;;;;9.82;4.97;;;;;;;20.39;100.00;96937.81;5013120;28;20045;-67
2023/08/13 00:06:53;;;;;;;8.40;5.18;;;;;;;20.31;100.00;96939.16;4996570;28;20077;-67
2023/08/13 00:09:19;;;;;;;9.93;5.35;;;;;;;20.21;100.00;96938.16;5013254;28;20026;-68
2023/08/13 00:11:45;;;;;;;10.82;5.38;;;;;;;20.14;100.00;96936.28;5013152;28;20033;-67
2023/08/13 00:14:10;;;;;;;8.90;6.00;;;;;;;20.07;100.00;96927.28;5012112;28;20026;-67
2023/08/13 00:16:36;;;;;;;9.98;5.75;;;;;;;20.04;100.00;96928.91;5013006;28;20030;-68
2023/08/13 00:19:01;;;;;;;11.60;5.95;;;;;;;20.02;100.00;96918.22;5012895;28;20026;-68
2023/08/13 00:21:26;;;;;;;10.15;6.35;;;;;;;20.00;100.00;96928.97;5012176;28;20372;-68
2023/08/13 00:23:52;;;;;;;9.45;6.15;;;;;;;19.93;100.00;96928.31;4995744;28;20073;-68
2023/08/13 00:26:17;;;;;;;10.70;6.22;;;;;;;19.88;100.00;96928.78;5013474;28;20030;-68
2023/08/13 00:28:42;;;;;;;10.35;5.72;;;;;;;19.82;100.00;96923.72;5013143;28;20036;-68
2023/08/13 00:31:08;;;;;;;8.63;5.97;;;;;;;19.81;100.00;96916.59;5014440;28;20084;-68
2023/08/13 00:33:33;;;;;;;15.40;6.47;;;;;;;19.87;100.00;96916.88;5013418;28;20060;-67
2023/08/13 00:35:59;;;;;;;9.80;6.55;;;;;;;19.89;100.00;96917.25;5012580;28;20502;-68
2023/08/13 00:38:24;;;;;;;11.82;6.43;;;;;;;19.85;100.00;96917.31;5013808;28;20038;-67
2023/08/13 00:40:49;;;;;;;9.38;6.18;;;;;;;19.79;100.00;96920.97;5014219;28;20041;-68
2023/08/13 00:43:15;;;;;;;8.52;6.10;;;;;;;19.74;100.00;96916.72;5012969;28;20037;-68
2023/08/13 00:45:40;;;;;;;16.77;7.10;;;;;;;19.68;100.00;96921.16;5013359;28;20111;-68
2023/08/13 00:48:07;;;;;;;10.80;6.00;;;;;;;19.58;100.00;96920.09;5013511;28;20026;-67
2023/08/13 00:50:33;;;;;;;14.05;6.25;;;;;;;19.56;100.00;96916.19;5013515;28;20026;-68
2023/08/13 00:52:58;;;;;;;11.27;6.43;;;;;;;19.57;100.00;96918.56;5012948;28;20068;-67
2023/08/13 00:55:24;;;;;;;9.55;6.38;;;;;;;19.57;100.00;96917.75;5011495;28;20065;-67
2023/08/13 00:57:50;;;;;;;12.30;6.40;;;;;;;19.55;100.00;96915.38;5012909;28;20056;-67
2023/08/13 01:00:16;;;;;;;9.00;6.20;;;;;;;19.56;100.00;96913.41;5013484;28;20045;-66
2023/08/13 01:02:42;;;;;;;8.85;5.95;;;;;;;19.55;100.00;96907.06;5015886;28;20045;-67
2023/08/13 01:05:08;;;;;;;7.88;5.82;;;;;;;19.54;100.00;96899.94;5014930;28;20029;-67
2023/08/13 01:07:40;;;;;;;9.68;6.32;;;;;;;19.49;100.00;96905.97;5014652;28;20511;-67
2023/08/13 01:10:23;;;;;;;9.88;6.50;;;;;;;19.45;100.00;96897.69;5013085;28;20033;-68
2023/08/13 01:12:57;;;;;;;13.30;5.90;;;;;;;19.52;100.00;96899.59;5012748;28;20146;-68
2023/08/13 01:15:36;;;;;;;12.07;6.05;;;;;;;19.50;100.00;96904.78;5013000;28;20064;-67
2023/08/13 01:18:02;;;;;;;10.75;5.18;;;;;;;19.55;100.00;96917.38;5012054;28;20391;-69
2023/08/13 01:20:32;;;;;;;10.32;5.50;;;;;;;19.52;100.00;96905.13;5012356;28;20034;-68
2023/08/13 01:22:58;;;;;;;11.38;5.90;;;;;;;19.45;100.00;96903.25;5012117;28;20026;-69
2023/08/13 01:25:25;;;;;;;9.23;5.25;;;;;;;19.36;100.00;96894.66;5014582;28;20036;-69
2023/08/13 01:28:15;;;;;;;8.82;5.38;;;;;;;19.36;100.00;96902.22;5017857;28;20176;-69
2023/08/13 01:30:46;;;;;;;11.02;6.22;;;;;;;19.31;100.00;96895.13;5017103;28;20025;-68
2023/08/13 01:33:19;;;;;;;7.82;5.15;;;;;;;19.32;100.00;96902.28;5017277;28;20030;-68
2023/08/13 01:35:47;;;;;;;10.30;6.10;;;;;;;19.34;100.00;96910.16;5016115;28;20037;-69
2023/08/13 01:38:13;;;;;;;9.27;5.88;;;;;;;19.29;100.00;96898.31;5030524;28;20033;-68
2023/08/13 01:40:38;;;;;;;11.50;6.05;;;;;;;19.25;100.00;96888.50;5015516;28;20030;-68
2023/08/13 01:43:04;;;;;;;16.08;6.03;;;;;;;19.19;100.00;96879.81;5014821;28;20037;-68
2023/08/13 01:45:29;;;;;;;13.35;6.20;;;;;;;19.11;100.00;96883.94;5019795;28;20030;-69
2023/08/13 01:47:55;;;;;;;11.88;6.22;;;;;;;19.09;100.00;96891.88;5016532;28;20040;-68
2023/08/13 01:50:22;;;;;;;13.00;6.53;;;;;;;19.12;100.00;96885.47;5015089;28;20051;-68
2023/08/13 01:52:47;;;;;;;11.50;5.75;;;;;;;19.19;100.00;96884.59;5016062;28;20036;-68
2023/08/13 01:55:13;;;;;;;9.85;6.60;;;;;;;19.13;100.00;96877.97;5014883;28;20101;-68
2023/08/13 01:57:38;;;;;;;9.90;6.15;;;;;;;19.04;100.00;96876.47;5015384;28;20053;-68
2023/08/13 02:00:06;;;;;;;11.88;6.63;;;;;;;19.02;100.00;96873.34;5015096;28;20352;-68
2023/08/13 02:02:32;;;;;;;9.55;6.80;;;;;;;18.98;100.00;96874.59;5013457;28;20068;-68
2023/08/13 02:04:58;;;;;;;10.77;6.45;;;;;;;19.06;100.00;96874.06;5015956;28;20057;-69
2023/08/13 02:07:23;;;;;;;10.27;6.15;;;;;;;19.19;100.00;96884.59;5015895;28;20037;-68
2023/08/13 02:09:48;;;;;;;6.90;5.68;;;;;;;19.29;100.00;96887.22;5013956;28;20072;-69
2023/08/13 02:12:14;;;;;;;8.30;5.25;;;;;;;19.49;100.00;96890.06;5014931;28;20080;-69
2023/08/13 02:14:39;;;;;;;8.10;5.60;;;;;;;19.49;100.00;96895.63;5014876;28;20332;-68
2023/08/13 02:17:05;;;;;;;7.22;5.15;;;;;;;19.48;100.00;96887.72;5013512;28;20494;-68
2023/08/13 02:19:30;;;;;;;10.52;5.10;;;;;;;19.47;100.00;96888.94;5014922;28;20446;-68
2023/08/13 02:21:55;;;;;;;8.98;5.13;;;;;;;19.45;100.00;96886.59;5015040;28;20037;-66
2023/08/13 02:24:21;;;;;;;8.05;5.35;;;;;;;19.48;100.00;96884.94;5014712;28;20540;-68
2023/08/13 02:26:46;;;;;;;6.05;4.38;;;;;;;19.40;100.00;96878.72;5014537;28;20034;-68
2023/08/13 02:29:11;;;;;;;9.07;5.03;;;;;;;19.40;100.00;96878.72;5014564;28;20057;-68
2023/08/13 02:31:37;;;;;;;9.18;5.40;;;;;;;19.42;100.00;96881.84;5014525;28;20344;-68
2023/08/13 02:34:02;;;;;;;9.38;5.00;;;;;;;19.37;100.00;96878.78;5014489;28;20062;-68
2023/08/13 02:36:28;;;;;;;8.75;5.10;;;;;;;19.26;100.00;96873.38;5013975;28;20439;-68
2023/08/13 02:38:53;;;;;;;9.52;5.25;;;;;;;19.23;100.00;96877.00;5014253;28;20479;-68
2023/08/13 02:41:19;;;;;;;8.43;5.78;;;;;;;19.18;100.00;96871.94;5012898;28;20097;-68
2023/08/13 02:43:53;;;;;;;8.18;5.22;;;;;;;19.04;100.00;96870.16;5013815;28;20030;-69
2023/08/13 02:46:23;;;;;;;7.43;5.30;;;;;;;18.90;100.00;96869.13;5013008;28;20076;-69
2023/08/13 02:48:51;;;;;;;12.60;5.43;;;;;;;18.84;100.00;96859.72;5012851;28;20058;-69
2023/08/13 02:51:17;;;;;;;8.88;5.47;;;;;;;18.84;100.00;96858.94;5013019;28;20041;-69
2023/08/13 02:53:42;;;;;;;11.32;6.20;;;;;;;18.76;100.00;96860.19;5014014;28;20034;-69
2023/08/13 02:56:08;;;;;;;11.35;6.30;;;;;;;18.61;100.00;96862.38;5014200;28;20062;-69
2023/08/13 02:58:34;;;;;;;9.82;6.03;;;;;;;18.49;100.00;96860.94;5014099;28;20041;-69
2023/08/13 03:00:59;;;;;;;8.20;5.85;;;;;;;18.40;100.00;96866.19;5013897;28;20030;-69
2023/08/13 03:03:25;;;;;;;7.40;5.80;;;;;;;18.43;100.00;96865.38;5013554;28;20065;-68
2023/08/13 03:05:51;;;;;;;6.72;5.57;;;;;;;18.43;100.00;96857.06;5013860;28;20458;-68
2023/08/13 03:08:16;;;;;;;10.40;6.10;;;;;;;18.49;100.00;96863.69;5012792;28;20026;-69
2023/08/13 03:10:41;;;;;;;11.55;6.20;;;;;;;18.54;100.00;96855.69;5013850;28;20038;-68
2023/08/13 03:13:07;;;;;;;11.98;6.38;;;;;;;18.59;100.00;96862.00;5012248;28;20076;-68
2023/08/13 03:15:32;;;;;;;10.02;6.40;;;;;;;18.59;100.00;96854.47;5021615;28;20032;-69
2023/08/13 03:17:58;;;;;;;13.70;6.18;;;;;;;18.56;100.00;96858.06;5012641;28;20029;-68
2023/08/13 03:20:23;;;;;;;8.82;5.80;;;;;;;18.51;100.00;96867.66;5013367;28;20045;-68
2023/08/13 03:22:49;;;;;;;7.78;5.57;;;;;;;18.41;100.00;96862.22;5013179;28;20029;-69
2023/08/13 03:25:14;;;;;;;10.70;5.43;;;;;;;18.29;100.00;96864.34;5013469;28;20030;-69
2023/08/13 03:27:40;;;;;;;8.52;6.30;;;;;;;18.20;100.00;96854.94;5013365;28;20621;-68
2023/08/13 03:30:06;;;;;;;9.73;5.78;;;;;;;18.21;100.00;96856.53;5013290;28;20040;-69
2023/08/13 03:32:31;;;;;;;14.45;6.75;;;;;;;18.19;100.00;96851.41;5013030;28;20030;-68
2023/08/13 03:34:56;;;;;;;10.88;6.82;;;;;;;18.24;100.00;96848.16;5013437;28;20026;-68
2023/08/13 03:37:22;;;;;;;11.00;7.45;;;;;;;18.30;100.00;96846.50;5013420;28;20030;-68
2023/08/13 03:39:47;;;;;;;11.68;6.82;;;;;;;18.14;100.00;96849.84;5013040;28;20030;-68
2023/08/13 03:42:13;;;;;;;12.93;7.32;;;;;;;17.95;100.00;96847.69;5012924;28;20066;-68
2023/08/13 03:44:40;;;;;;;11.15;6.90;;;;;;;17.81;100.00;96845.81;5012990;28;20498;-68
2023/08/13 03:47:05;;;;;;;12.68;7.05;;;;;;;17.84;100.00;96853.28;5013094;28;20045;-68
2023/08/13 03:49:30;;;;;;;10.30;7.38;;;;;;;17.86;100.00;96850.94;5012207;28;20046;-68
2023/08/13 03:51:56;;;;;;;13.23;7.28;;;;;;;17.83;100.00;96850.97;5012858;28;20418;-68
2023/08/13 03:54:21;;;;;;;9.77;6.85;;;;;;;17.83;100.00;96853.72;5012630;28;20055;-68
2023/08/13 03:56:47;;;;;;;10.63;7.03;;;;;;;17.80;100.00;96847.00;5012857;28;20101;-68
2023/08/13 03:59:12;;;;;;;13.68;6.97;;;;;;;17.72;100.00;96849.06;5012460;28;20120;-68
2023/08/13 04:01:37;;;;;;;9.60;7.05;;;;;;;17.72;100.00;96851.84;5012787;28;20080;-69
2023/08/13 04:04:03;;;;;;;13.60;7.35;;;;;;;17.76;100.00;96844.28;5012501;28;20399;-69
2023/08/13 04:06:28;;;;;;;11.07;6.90;;;;;;;17.80;100.00;96851.78;5028012;28;20459;-69
2023/08/13 04:08:54;;;;;;;9.07;6.97;;;;;;;17.83;100.00;96860.06;5011566;28;20046;-69
2023/08/13 04:11:19;;;;;;;14.45;8.70;;;;;;;17.68;100.00;96858.59;5012817;28;20619;-69
2023/08/13 04:13:44;;;;;;;12.50;7.03;;;;;;;17.67;100.00;96860.59;5012295;28;20041;-69
2023/08/13 04:16:10;;;;;;;10.30;7.18;;;;;;;17.67;100.00;96857.03;5011484;28;20034;-69
2023/08/13 04:18:35;;;;;;;10.65;5.82;;;;;;;17.64;100.00;96858.63;5013841;28;20387;-68
2023/08/13 04:21:01;;;;;;;11.70;8.48;;;;;;;17.58;100.00;96852.75;5013988;28;20029;-69
2023/08/13 04:23:26;;;;;;;10.48;7.90;;;;;;;17.49;100.00;96859.97;5013013;28;20479;-69
2023/08/13 04:25:51;;;;;;;9.98;6.50;;;;;;;17.54;100.00;96851.22;5013297;28;20030;-69
2023/08/13 04:28:17;;;;;;;11.00;7.80;;;;;;;17.64;100.00;96844.78;5013225;28;20076;-70
2023/08/13 04:30:42;;;;;;;13.05;8.23;;;;;;;17.54;100.00;96843.69;5012998;28;20036;-70
2023/08/13 04:33:08;;;;;;;11.40;6.80;;;;;;;17.59;100.00;96850.75;5012634;28;20030;-70
2023/08/13 04:35:33;;;;;;;14.05;7.53;;;;;;;17.77;100.00;96853.38;5012591;28;20434;-69
2023/08/13 04:37:59;;;;;;;10.05;7.35;;;;;;;17.94;100.00;96859.97;5012367;28;20153;-69
2023/08/13 04:40:24;;;;;;;11.95;7.50;;;;;;;18.00;100.00;96855.53;5012296;28;20037;-69
2023/08/13 04:42:49;;;;;;;10.95;6.93;;;;;;;18.08;100.00;96857.06;5011956;28;20030;-69
2023/08/13 04:45:15;;;;;;;9.88;6.72;;;;;;;18.10;100.00;96867.72;5012264;28;20513;-69
2023/08/13 04:47:41;;;;;;;9.50;7.00;;;;;;;18.20;100.00;96860.47;5012302;28;20030;-69
2023/08/13 04:50:08;;;;;;;11.60;6.45;;;;;;;18.36;100.00;96868.22;5012221;28;20565;-69
2023/08/13 04:52:34;;;;;;;8.00;6.40;;;;;;;18.39;100.00;96867.41;5018488;28;20030;-69
2023/08/13 04:54:59;;;;;;;8.75;5.65;;;;;;;18.59;100.00;96867.56;5015059;28;20030;-69
2023/08/13 04:57:25;;;;;;;9.50;6.03;;;;;;;18.66;100.00;96871.03;5012101;28;20080;-69
2023/08/13 04:59:50;;;;;;;8.55;6.10;;;;;;;18.50;100.00;96868.84;5016672;28;20077;-69
2023/08/13 05:02:15;;;;;;;8.70;6.28;;;;;;;18.71;100.00;96867.00;5016486;28;20510;-69
2023/08/13 05:04:41;;;;;;;10.85;6.57;;;;;;;18.83;100.00;96868.44;5016339;28;20030;-68
2023/08/13 05:07:06;;;;;;;10.73;6.55;;;;;;;18.92;100.00;96874.28;5016082;28;20037;-68
2023/08/13 05:09:34;;;;;;;9.23;5.93;;;;;;;19.06;100.00;96878.84;5016181;28;20022;-69
2023/08/13 05:11:59;;;;;;;9.50;5.95;;;;;;;19.42;100.00;96887.41;5015735;28;20521;-67
2023/08/13 05:14:25;;;;;;;15.13;6.50;;;;;;;19.91;100.00;96886.25;5016595;28;20030;-67
2023/08/13 05:16:50;;;;;;;10.60;5.10;;;;;;;20.51;100.00;96878.78;5016984;28;20368;-67
2023/08/13 05:19:15;;;;;;;7.53;5.10;;;;;;;21.37;100.00;96885.28;5016750;28;20064;-67
2023/08/13 05:21:41;;;;;;;8.48;5.00;;;;;;;22.04;100.00;96886.03;5017014;28;20104;-67
2023/08/13 05:24:06;;;;;;;8.70;5.03;;;;;;;22.70;100.00;96881.84;5015549;28;20029;-67
2023/08/13 05:26:32;;;;;;;8.45;4.60;;;;;;;23.37;100.00;96882.28;5014452;28;20053;-66
2023/08/13 05:28:57;;;;;;;7.13;4.10;;;;;;;23.82;100.00;96882.06;5015454;28;20031;-67
2023/08/13 05:31:23;;;;;;;10.68;5.07;;;;;;;23.76;100.00;96886.59;5015618;28;20124;-67
2023/08/13 05:33:48;;;;;;;7.50;4.35;;;;;;;23.64;100.00;96885.41;5015222;28;20025;-69
2023/08/13 05:36:13;;;;;;;8.73;4.22;;;;;;;23.75;100.00;96887.06;5015498;28;20541;-67
2023/08/13 05:38:39;;;;;;;9.65;4.40;;;;;;;24.38;96.59;96894.53;5015415;28;20041;-68
2023/08/13 05:41:05;;;;;;;6.28;4.30;;;;;;;25.09;91.08;96903.56;5015886;28;20041;-67
2023/08/13 05:43:30;;;;;;;7.35;3.58;;;;;;;25.33;88.99;96915.84;5015294;28;20101;-66
2023/08/13 05:45:56;;;;;;;9.65;3.92;;;;;;;25.46;88.73;96910.16;5015556;28;20521;-67
2023/08/13 05:48:21;;;;;;;6.15;3.47;;;;;;;25.64;85.39;96912.25;5015246;28;20030;-67
2023/08/13 05:50:47;;;;;;;9.07;3.50;;;;;;;25.45;86.59;96911.38;5015241;28;20101;-67
2023/08/13 05:53:12;;;;;;;7.40;4.18;;;;;;;25.06;89.35;96915.69;5014922;28;20125;-67
2023/08/13 05:55:38;;;;;;;6.68;3.65;;;;;;;24.69;92.72;96916.25;5015565;28;20025;-68
2023/08/13 05:58:05;;;;;;;5.32;3.40;;;;;;;24.60;91.46;96919.75;5015938;28;20076;-68
2023/08/13 06:00:30;;;;;;;10.98;4.55;;;;;;;24.45;94.35;96927.06;5015384;28;20088;-69
2023/08/13 06:02:56;;;;;;;9.63;4.07;;;;;;;24.31;96.55;96917.16;5015258;28;20034;-70
2023/08/13 06:05:21;;;;;;;7.22;4.15;;;;;;;24.16;97.81;96922.44;5015256;28;20038;-70
2023/08/13 06:07:46;;;;;;;8.38;4.38;;;;;;;23.95;100.00;96921.19;5015410;28;20064;-69
2023/08/13 06:10:12;;;;;;;14.07;9.52;;;;;;;23.72;100.00;96919.50;5015381;28;20439;-69
2023/08/13 06:12:37;;;;;;;9.05;4.18;;;;;;;23.42;100.00;96918.06;5013889;28;20026;-69
2023/08/13 06:15:04;;;;;;;6.72;4.85;;;;;;;23.15;100.00;96905.31;5014895;28;20034;-69
2023/08/13 06:17:30;;;;;;;7.00;4.90;;;;;;;22.84;100.00;96903.00;5015086;28;20037;-69
2023/08/13 06:19:55;;;;;;;9.60;5.47;;;;;;;21.14;100.00;96900.13;5014589;28;20037;-68
2023/08/13 06:22:20;;;;;;;8.68;5.13;;;;;;;21.37;100.00;96895.63;5014080;28;20029;-69
2023/08/13 06:24:46;;;;;;;9.25;5.07;;;;;;;21.71;100.00;96895.22;5012622;28;20033;-68
2023/08/13 06:27:11;;;;;;;10.13;5.05;;;;;;;22.00;100.00;96896.50;5014516;28;20511;-70
2023/08/13 06:29:37;;;;;;;9.35;5.10;;;;;;;22.70;100.00;96903.41;5017432;28;20025;-68
2023/08/13 06:32:03;;;;;;;6.85;4.28;;;;;;;23.78;100.00;96906.50;5019165;28;20034;-68
2023/08/13 06:34:28;;;;;;;9.30;4.38;;;;;;;24.87;99.44;96909.97;5014540;28;20648;-68
2023/08/13 06:36:54;;;;;;;6.60;4.18;;;;;;;25.81;91.35;96917.59;5014316;28;20030;-68
2023/08/13 06:39:21;;;;;;;7.68;4.45;;;;;;;26.37;85.55;96921.28;5014655;28;20053;-68
2023/08/13 06:41:46;;;;;;;6.78;3.58;;;;;;;27.36;80.72;96923.69;5014165;28;20038;-69
2023/08/13 06:44:20;;;;;;;8.63;3.53;;;;;;;28.09;72.17;96932.25;5012789;28;20026;-69
2023/08/13 06:46:46;;;;;;;6.13;3.40;;;;;;;26.76;80.95;96925.22;5014240;28;20034;-68
2023/08/13 06:49:12;;;;;;;7.47;3.33;;;;;;;27.21;78.35;96926.38;5014094;28;20176;-69
2023/08/13 06:51:38;;;;;;;5.18;3.25;;;;;;;27.71;76.28;96930.88;5014224;28;20061;-69
2023/08/13 06:54:03;;;;;;;7.60;3.55;;;;;;;27.35;75.69;96936.19;5013841;28;20108;-69
2023/08/13 06:56:30;;;;;;;10.35;4.05;;;;;;;25.11;87.03;96927.06;5013941;28;20040;-69
2023/08/13 06:58:56;;;;;;;7.57;3.50;;;;;;;24.61;92.72;96924.13;5013749;28;20042;-69
2023/08/13 07:01:22;;;;;;;7.40;3.95;;;;;;;23.59;100.00;96924.34;5014008;28;20030;-69
2023/08/13 07:03:47;;;;;;;8.35;4.30;;;;;;;22.71;100.00;96913.38;5012262;28;20034;-68
2023/08/13 07:06:15;;;;;;;8.73;4.70;;;;;;;22.98;100.00;96920.56;5013929;28;20037;-68
2023/08/13 07:08:43;;;;;;;4.80;3.78;;;;;;;23.48;100.00;96919.84;5012475;28;20103;-68
2023/08/13 07:11:08;;;;;;;7.18;4.35;;;;;;;23.29;100.00;96916.03;5013589;28;20034;-68
2023/08/13 07:13:34;;;;;;;9.13;4.47;;;;;;;23.60;100.00;96915.47;5012553;28;20456;-67
2023/08/13 07:15:59;;;;;;;7.28;4.22;;;;;;;23.69;100.00;96917.59;5014290;28;20387;-67
2023/08/13 07:18:24;;;;;;;8.30;4.68;;;;;;;23.06;100.00;96913.56;5012750;28;20026;-67
2023/08/13 07:20:50;;;;;;;7.50;5.03;;;;;;;22.46;100.00;96914.84;5014868;28;20451;-67
2023/08/13 07:23:15;;;;;;;8.25;4.53;;;;;;;22.95;100.00;96913.84;5018716;28;20030;-67
2023/08/13 07:25:41;;;;;;;9.43;4.55;;;;;;;22.99;100.00;96911.72;5016414;28;20104;-67
2023/08/13 07:28:06;;;;;;;8.77;5.20;;;;;;;22.46;100.00;96912.03;5016730;28;20545;-69
2023/08/13 07:30:32;;;;;;;14.57;5.30;;;;;;;21.96;100.00;96916.13;5020943;28;20057;-70
2023/08/13 07:32:57;;;;;;;6.72;4.53;;;;;;;21.93;100.00;96920.59;5018408;28;20383;-69
2023/08/13 07:35:24;;;;;;;7.40;4.75;;;;;;;22.79;100.00;96922.31;5017531;28;20034;-69
2023/08/13 07:37:49;;;;;;;7.60;5.05;;;;;;;22.88;100.00;96917.63;5014778;28;20109;-69
2023/08/13 07:40:16;;;;;;;7.63;4.88;;;;;;;23.52;100.00;96927.34;5014422;28;20066;-69
2023/08/13 07:42:42;;;;;;;9.27;4.82;;;;;;;25.43;95.23;96921.50;5013422;28;20049;-68
2023/08/13 07:45:08;;;;;;;11.18;4.85;;;;;;;25.55;91.71;96929.81;5014048;28;20030;-67
2023/08/13 07:47:36;;;;;;;6.15;4.28;;;;;;;25.97;88.30;96933.41;5013009;28;20033;-70
2023/08/13 07:50:04;;;;;;;9.57;4.72;;;;;;;24.86;93.28;96932.84;5012954;28;20025;-69
2023/08/13 07:52:30;;;;;;;9.73;4.78;;;;;;;23.46;100.00;96927.91;5012558;28;20117;-68
2023/08/13 07:54:55;;;;;;;9.35;5.18;;;;;;;23.62;100.00;96926.22;5013124;28;20463;-70
2023/08/13 07:57:20;;;;;;;9.10;5.20;;;;;;;23.14;100.00;96926.09;5012981;28;20061;-69
2023/08/13 07:59:46;;;;;;;7.18;4.68;;;;;;;23.10;100.00;96919.81;5012961;28;20517;-68
2023/08/13 08:02:11;;;;;;;10.02;5.05;;;;;;;22.85;100.00;96926.09;5012541;28;20120;-68
2023/08/13 08:04:37;;;;;;;7.18;5.13;;;;;;;22.58;100.00;96920.91;5012965;28;20026;-68
2023/08/13 08:07:02;;;;;;;8.02;5.10;;;;;;;24.10;100.00;96920.69;5011770;28;20391;-68
2023/08/13 08:09:28;;;;;;;9.38;4.85;;;;;;;25.37;94.37;96930.53;5012628;28;20040;-68
2023/08/13 08:11:53;;;;;;;11.15;4.25;;;;;;;27.60;82.30;96928.59;5017599;28;20030;-68
2023/08/13 08:14:19;;;;;;;6.68;4.35;;;;;;;29.37;69.23;96926.81;5012708;28;20406;-68
2023/08/13 08:16:44;;;;;;;7.47;4.03;;;;;;;30.85;59.60;96933.97;5012962;28;20036;-68
2023/08/13 08:19:10;;;;;;;8.00;4.07;;;;;;;30.38;60.84;96929.56;5012664;28;20126;-68
2023/08/13 08:21:36;;;;;;;6.55;3.58;;;;;;;30.82;59.85;96928.53;5012807;28;20132;-68
2023/08/13 08:24:02;;;;;;;6.65;4.03;;;;;;;30.88;58.65;96926.53;5012430;28;20057;-68
2023/08/13 08:26:28;;;;;;;6.72;4.00;;;;;;;28.90;68.90;96912.41;5013341;28;20491;-68
2023/08/13 08:28:53;;;;;;;7.20;3.92;;;;;;;28.53;67.47;96909.09;5014208;28;20030;-68
2023/08/13 08:31:19;;;;;;;6.32;3.53;;;;;;;28.03;73.77;96899.13;5011109;28;20038;-68
2023/08/13 08:33:45;;;;;;;5.63;3.58;;;;;;;28.63;71.77;96904.19;5010871;28;20040;-68
2023/08/13 08:36:10;;;;;;;14.63;4.38;;;;;;;27.96;69.09;96899.50;5012288;28;20530;-68
2023/08/13 08:38:35;;;;;;;9.93;4.97;;;;;;;26.20;86.14;96907.56;5012754;28;20033;-67
2023/08/13 08:41:01;;;;;;;6.22;4.15;;;;;;;26.75;85.19;96898.34;5013297;28;20030;-67
2023/08/13 08:43:31;;;;;;;6.60;4.15;;;;;;;25.18;94.39;96889.59;5013202;28;20030;-67
2023/08/13 08:45:57;;;;;;;8.30;4.57;;;;;;;25.74;93.64;96893.41;5012785;28;20116;-68
2023/08/13 08:48:26;;;;;;;9.68;4.85;;;;;;;24.92;98.93;96886.97;5012313;28;20061;-68
2023/08/13 08:50:52;;;;;;;9.55;3.95;;;;;;;28.29;77.98;96898.66;5012364;28;20030;-68
2023/08/13 08:53:20;;;;;;;7.05;4.45;;;;;;;28.59;71.75;96905.19;5011724;28;20051;-68
2023/08/13 08:55:47;;;;;;;6.22;4.10;;;;;;;28.24;75.63;96902.13;5012191;28;20041;-68
2023/08/13 08:58:13;;;;;;;8.07;3.97;;;;;;;30.56;63.46;96901.03;5011670;28;20049;-68
2023/08/13 09:00:38;;;;;;;6.35;4.35;;;;;;;26.60;80.57;96898.19;5013419;28;20030;-68
2023/08/13 09:03:04;;;;;;;7.47;4.53;;;;;;;26.74;83.58;96885.56;5012299;28;20043;-67
2023/08/13 09:05:32;;;;;;;6.25;4.22;;;;;;;28.79;72.04;96890.44;5012277;28;20032;-68
2023/08/13 09:07:57;;;;;;;7.28;4.60;;;;;;;28.27;73.62;96894.75;5012179;28;20037;-68
2023/08/13 09:10:23;;;;;;;6.85;3.88;;;;;;;30.50;63.14;96891.69;5012157;28;20582;-67
2023/08/13 09:12:52;;;;;;;8.07;3.90;;;;;;;28.79;72.49;96878.34;5019111;28;20025;-68
2023/08/13 09:15:18;;;;;;;8.68;4.43;;;;;;;28.57;69.75;96882.31;5019553;28;20041;-68
2023/08/13 09:17:43;;;;;;;8.55;4.47;;;;;;;27.53;79.40;96881.09;5020215;28;20052;-67
2023/08/13 09:20:16;;;;;;;6.78;4.10;;;;;;;29.73;65.43;96886.06;5014359;28;20077;-67
2023/08/13 09:22:46;;;;;;;6.25;3.78;;;;;;;30.70;63.54;96893.72;5013425;28;20034;-67
2023/08/13 09:25:14;;;;;;;7.32;4.10;;;;;;;31.52;59.55;96887.81;5013132;28;20513;-68
2023/08/13 09:27:39;;;;;;;9.32;3.70;;;;;;;32.36;56.12;96890.34;5012039;28;20096;-68
2023/08/13 09:30:10;;;;;;;9.25;4.20;;;;;;;32.22;56.67;96884.88;5011957;28;20034;-68
2023/08/13 09:32:35;;;;;;;6.90;4.38;;;;;;;31.35;57.72;96879.16;5011337;28;20037;-68
2023/08/13 09:35:04;;;;;;;8.98;4.05;;;;;;;31.89;56.98;96881.34;5013971;28;20034;-67
2023/08/13 09:37:29;;;;;;;6.40;4.53;;;;;;;31.81;56.27;96875.38;5013029;28;20030;-68
2023/08/13 09:39:55;;;;;;;5.75;4.03;;;;;;;31.73;57.13;96870.69;5012285;28;20036;-68
2023/08/13 09:42:26;;;;;;;8.90;4.80;;;;;;;31.72;55.82;96875.56;5011600;28;20030;-68
2023/08/13 09:44:51;;;;;;;6.93;4.60;;;;;;;31.91;54.60;96869.50;5011895;28;20080;-68
2023/08/13 09:47:19;;;;;;;6.05;4.47;;;;;;;31.49;56.67;96869.00;5013776;28;20034;-68
2023/08/13 09:49:45;;;;;;;8.43;4.70;;;;;;;31.58;57.26;96868.78;5014400;28;20091;-68
2023/08/13 09:52:11;;;;;;;7.80;4.72;;;;;;;32.31;53.81;96871.25;5015061;28;20030;-68
2023/08/13 09:55:03;;;;;;;6.78;4.07;;;;;;;31.93;54.91;96864.88;5015334;28;20029;-68
2023/08/13 09:57:31;;;;;;;5.53;3.90;;;;;;;31.99;56.03;96862.09;4993218;28;20037;-68
2023/08/13 09:59:58;;;;;;;8.30;3.80;;;;;;;32.64;54.04;96869.84;5013930;28;20034;-68
2023/08/13 10:02:24;;;;;;;7.65;4.30;;;;;;;32.59;52.03;96873.41;5015224;28;20038;-68
2023/08/13 10:04:50;;;;;;;6.20;4.20;;;;;;;32.88;51.74;96872.22;5015667;28;20116;-68
2023/08/13 10:07:18;;;;;;;6.65;4.00;;;;;;;32.38;52.92;96853.75;5016480;28;20495;-68
2023/08/13 10:09:45;;;;;;;8.05;4.40;;;;;;;33.08;51.33;96856.22;5015200;28;20034;-68
2023/08/13 10:12:11;;;;;;;8.00;3.65;;;;;;;33.52;50.91;96852.59;5014823;28;20128;-68
2023/08/13 10:14:38;;;;;;;6.32;3.75;;;;;;;33.51;50.03;96853.91;5014798;28;20525;-67
2023/08/13 10:17:05;;;;;;;7.60;4.25;;;;;;;32.78;52.14;96855.94;5014916;28;20505;-67
2023/08/13 10:19:37;;;;;;;7.32;4.60;;;;;;;31.98;54.23;96855.66;5015347;28;20034;-67
2023/08/13 10:22:02;;;;;;;7.25;4.53;;;;;;;31.54;56.43;96839.94;5016001;28;20057;-67
2023/08/13 10:24:29;;;;;;;9.25;4.50;;;;;;;30.49;60.80;96847.78;5015832;28;20034;-68
2023/08/13 10:26:55;;;;;;;7.43;4.22;;;;;;;30.69;60.11;96838.47;5016483;28;20033;-68
2023/08/13 10:29:21;;;;;;;8.32;4.85;;;;;;;30.64;59.02;96834.28;5016126;28;20097;-67
2023/08/13 10:31:59;;;;;;;6.07;4.57;;;;;;;30.26;62.84;96830.53;5016588;28;20037;-68
2023/08/13 10:34:50;;;;;;;9.88;5.05;;;;;;;30.61;61.73;96831.69;5018000;28;20030;-67
2023/08/13 10:37:20;;;;;;;9.75;5.20;;;;;;;30.87;58.67;96821.16;5015530;28;20125;-67
2023/08/13 10:39:47;;;;;;;8.48;4.57;;;;;;;31.05;57.90;96820.03;5015590;28;20030;-67
2023/08/13 10:42:33;;;;;;;8.90;5.00;;;;;;;30.84;59.52;96812.88;5014737;28;20538;-67
2023/08/13 10:45:05;;;;;;;8.30;4.90;;;;;;;31.26;58.53;96808.63;5014605;28;20217;-67
2023/08/13 10:47:49;;;;;;;11.68;5.70;;;;;;;30.79;60.30;96808.75;5014516;28;20108;-67
2023/08/13 10:50:40;;;;;;;6.60;4.63;;;;;;;31.08;59.18;96809.00;5013010;28;20072;-67
2023/08/13 10:53:33;;;;;;;9.30;5.07;;;;;;;30.94;58.76;96817.13;5014036;28;20521;-67
2023/08/13 10:56:01;;;;;;;8.73;4.85;;;;;;;30.61;62.53;96809.06;5012027;28;20057;-67
2023/08/13 10:58:45;;;;;;;9.07;4.45;;;;;;;30.31;62.22;96812.09;5014767;28;20038;-66
2023/08/13 11:01:19;;;;;;;9.82;4.80;;;;;;;30.34;63.74;96805.47;5014236;28;20489;-67
2023/08/13 11:03:54;;;;;;;11.98;5.55;;;;;;;30.41;62.31;96805.03;5015494;28;20046;-67
2023/08/13 11:06:22;;;;;;;9.30;4.80;;;;;;;30.22;65.66;96801.72;5014250;28;20036;-68
2023/08/13 11:08:47;;;;;;;6.47;4.50;;;;;;;29.75;67.16;96803.75;5013902;28;20025;-67
2023/08/13 11:11:14;;;;;;;7.90;5.38;;;;;;;29.78;67.79;96805.56;5014038;28;20030;-67
2023/08/13 11:13:40;;;;;;;8.00;4.55;;;;;;;29.31;68.78;96796.94;5013731;28;20045;-67
2023/08/13 11:16:05;;;;;;;8.93;4.50;;;;;;;29.66;68.01;96795.41;5013766;28;20045;-66
2023/08/13 11:18:31;;;;;;;6.78;4.47;;;;;;;29.86;68.17;96801.06;5013823;28;20402;-67
2023/08/13 11:20:56;;;;;;;8.30;4.82;;;;;;;29.66;68.99;96793.34;5013565;28;20030;-67
2023/08/13 11:23:22;;;;;;;10.43;5.10;;;;;;;29.77;68.29;96794.78;5014237;28;20041;-67
2023/08/13 11:25:49;;;;;;;10.50;5.18;;;;;;;29.74;68.65;96793.69;5015686;28;20105;-67